createdAt,value
2023-01-01T00:02:07.566Z,14.02
2023-01-01T00:04:34.727Z,14.01
2023-01-01T00:07:01.771Z,13.98
2023-01-01T00:09:47.065Z,13.94
2023-01-01T00:12:13.837Z,13.96
2023-01-01T00:14:42.965Z,13.90
2023-01-01T00:17:10.687Z,13.90
2023-01-01T00:19:37.238Z,13.86
2023-01-01T00:22:28.001Z,13.84
2023-01-01T00:24:50.097Z,13.82
2023-01-01T00:27:16.578Z,13.84
2023-01-01T00:29:43.165Z,13.81
2023-01-01T00:32:11.706Z,13.82
2023-01-01T00:34:38.411Z,13.80
2023-01-01T00:37:04.886Z,13.80
2023-01-01T00:39:31.409Z,13.84
2023-01-01T00:41:57.946Z,13.87
2023-01-01T00:44:24.399Z,13.92
2023-01-01T00:46:51.007Z,13.91
2023-01-01T00:49:17.609Z,13.91
2023-01-01T00:51:44.664Z,13.91
2023-01-01T00:54:11.237Z,13.92
2023-01-01T00:56:37.825Z,13.92
2023-01-01T00:59:04.757Z,13.95
2023-01-01T01:01:31.674Z,13.93
2023-01-01T01:03:58.376Z,13.93
2023-01-01T01:06:24.924Z,13.94
2023-01-01T01:08:51.723Z,14.00
2023-01-01T01:11:21.053Z,14.01
2023-01-01T01:13:49.905Z,14.05
2023-01-01T01:16:24.195Z,14.05
2023-01-01T01:18:52.771Z,14.05
2023-01-01T01:21:21.192Z,14.08
2023-01-01T01:23:48.818Z,14.07
2023-01-01T01:26:26.621Z,14.05
2023-01-01T01:28:54.039Z,14.03
2023-01-01T01:31:22.715Z,14.01
2023-01-01T01:33:50.214Z,13.97
2023-01-01T01:36:18.650Z,13.93
2023-01-01T01:38:45.459Z,13.90
2023-01-01T01:41:27.369Z,13.84
2023-01-01T01:44:01.076Z,13.80
2023-01-01T01:46:41.984Z,13.78
2023-01-01T01:49:32.049Z,13.74
2023-01-01T01:52:01.899Z,13.75
2023-01-01T01:54:29.675Z,13.72
2023-01-01T01:57:03.076Z,13.69
2023-01-01T01:59:33.710Z,13.68
2023-01-01T02:02:01.242Z,13.62
2023-01-01T02:04:28.398Z,13.60
2023-01-01T02:06:55.726Z,13.61
2023-01-01T02:09:22.604Z,13.58
2023-01-01T02:11:49.263Z,13.59
2023-01-01T02:14:15.879Z,13.60
2023-01-01T02:16:57.261Z,13.57
2023-01-01T02:19:23.674Z,13.53
2023-01-01T02:21:56.143Z,13.51
2023-01-01T02:24:41.375Z,13.51
2023-01-01T02:27:40.283Z,13.53
2023-01-01T02:30:09.312Z,13.50
2023-01-01T02:32:46.370Z,13.51
2023-01-01T02:35:37.025Z,13.48
2023-01-01T02:38:23.335Z,13.48
2023-01-01T02:40:55.968Z,13.46
2023-01-01T02:43:24.997Z,13.45
2023-01-01T02:45:54.085Z,13.49
2023-01-01T02:48:39.688Z,13.48
2023-01-01T02:51:14.601Z,13.48
2023-01-01T02:54:15.278Z,13.46
2023-01-01T02:56:54.148Z,13.44
2023-01-01T02:59:49.640Z,13.44
2023-01-01T03:02:50.781Z,13.43
2023-01-01T03:05:59.454Z,13.43
2023-01-01T03:08:34.483Z,13.40
2023-01-01T03:11:15.195Z,13.37
2023-01-01T03:13:58.823Z,13.40
2023-01-01T03:16:32.158Z,13.41
2023-01-01T03:19:11.146Z,13.40
2023-01-01T03:22:02.236Z,13.44
2023-01-01T03:24:36.364Z,13.44
2023-01-01T03:27:08.100Z,13.44
2023-01-01T03:29:39.475Z,13.44
2023-01-01T03:32:09.068Z,13.45
2023-01-01T03:34:41.740Z,13.44
2023-01-01T03:37:14.757Z,13.41
2023-01-01T03:39:53.058Z,13.41
2023-01-01T03:42:28.868Z,13.40
2023-01-01T03:45:17.365Z,13.43
2023-01-01T03:47:44.071Z,13.45
2023-01-01T03:50:10.691Z,13.46
2023-01-01T03:53:22.170Z,13.51
2023-01-01T03:56:21.068Z,13.54
2023-01-01T03:59:00.689Z,13.57
2023-01-01T04:01:33.008Z,13.52
2023-01-01T04:04:01.430Z,13.50
2023-01-01T04:06:28.323Z,13.47
2023-01-01T04:08:59.051Z,13.42
2023-01-01T04:11:47.975Z,13.34
2023-01-01T04:14:14.460Z,13.24
2023-01-01T04:16:41.075Z,13.17
2023-01-01T04:19:07.677Z,13.14
2023-01-01T04:21:34.137Z,13.13
2023-01-01T04:24:00.613Z,13.10
2023-01-01T04:26:27.240Z,13.08
2023-01-01T04:28:53.806Z,13.03
2023-01-01T04:31:20.343Z,12.97
2023-01-01T04:33:46.839Z,12.89
2023-01-01T04:36:13.275Z,12.80
2023-01-01T04:38:39.777Z,12.75
2023-01-01T04:41:06.321Z,12.72
2023-01-01T04:43:33.043Z,12.66
2023-01-01T04:46:01.774Z,12.62
2023-01-01T04:48:29.389Z,12.56
2023-01-01T04:51:02.560Z,12.52
2023-01-01T04:53:31.603Z,12.50
2023-01-01T04:56:10.103Z,12.48
2023-01-01T04:58:39.016Z,12.47
2023-01-01T05:01:06.191Z,12.43
2023-01-01T05:03:32.920Z,12.42
2023-01-01T05:06:06.647Z,12.41
2023-01-01T05:08:35.066Z,12.40
2023-01-01T05:11:03.374Z,12.38
2023-01-01T05:13:29.907Z,12.37
2023-01-01T05:15:56.739Z,12.37
2023-01-01T05:18:23.463Z,12.35
2023-01-01T05:20:50.428Z,12.34
2023-01-01T05:23:18.262Z,12.34
2023-01-01T05:25:46.067Z,12.33
2023-01-01T05:28:13.423Z,12.35
2023-01-01T05:30:42.423Z,12.35
2023-01-01T05:33:09.526Z,12.36
2023-01-01T05:35:37.272Z,12.36
2023-01-01T05:38:05.626Z,12.35
2023-01-01T05:40:33.859Z,12.35
2023-01-01T05:43:04.292Z,12.33
2023-01-01T05:45:32.752Z,12.31
2023-01-01T05:48:01.986Z,12.31
2023-01-01T05:50:30.412Z,12.33
2023-01-01T05:52:57.549Z,12.33
2023-01-01T05:55:25.553Z,12.31
2023-01-01T05:57:54.346Z,12.29
2023-01-01T06:00:21.524Z,12.28
2023-01-01T06:02:50.961Z,12.27
2023-01-01T06:05:21.972Z,12.28
2023-01-01T06:07:49.029Z,12.30
2023-01-01T06:10:16.040Z,12.29
2023-01-01T06:12:42.785Z,12.27
2023-01-01T06:15:09.997Z,12.26
2023-01-01T06:17:36.756Z,12.24
2023-01-01T06:20:03.670Z,12.25
2023-01-01T06:22:30.668Z,12.22
2023-01-01T06:24:57.253Z,12.21
2023-01-01T06:27:23.721Z,12.20
2023-01-01T06:29:50.434Z,12.18
2023-01-01T06:32:17.091Z,12.15
2023-01-01T06:34:44.991Z,12.14
2023-01-01T06:37:14.703Z,12.13
2023-01-01T06:39:41.319Z,12.12
2023-01-01T06:42:07.858Z,12.09
2023-01-01T06:44:34.551Z,12.06
2023-01-01T06:47:01.234Z,12.04
2023-01-01T06:49:27.789Z,12.02
2023-01-01T06:51:54.502Z,12.00
2023-01-01T06:54:21.241Z,11.98
2023-01-01T06:56:48.609Z,11.95
2023-01-01T06:59:16.433Z,11.94
2023-01-01T07:01:44.358Z,11.93
2023-01-01T07:04:13.935Z,11.89
2023-01-01T07:06:40.536Z,11.87
2023-01-01T07:09:08.723Z,11.85
2023-01-01T07:11:35.934Z,11.84
2023-01-01T07:14:03.177Z,11.83
2023-01-01T07:16:30.053Z,11.81
2023-01-01T07:18:57.580Z,11.80
2023-01-01T07:21:43.476Z,11.78
2023-01-01T07:24:13.133Z,11.76
2023-01-01T07:26:41.011Z,11.74
2023-01-01T07:29:10.956Z,11.72
2023-01-01T07:31:42.057Z,11.70
2023-01-01T07:34:13.480Z,11.67
2023-01-01T07:36:39.999Z,11.64
2023-01-01T07:39:06.766Z,11.63
2023-01-01T07:41:33.391Z,11.60
2023-01-01T07:44:00.176Z,11.56
2023-01-01T07:46:28.756Z,11.51
2023-01-01T07:48:56.511Z,11.48
2023-01-01T07:51:23.271Z,11.46
2023-01-01T07:53:49.943Z,11.45
2023-01-01T07:56:16.681Z,11.43
2023-01-01T07:58:44.556Z,11.40
2023-01-01T08:01:12.877Z,11.34
2023-01-01T08:03:40.081Z,11.31
2023-01-01T08:06:13.165Z,11.28
2023-01-01T08:08:42.879Z,11.25
2023-01-01T08:11:09.666Z,11.24
2023-01-01T08:13:36.844Z,11.20
2023-01-01T08:16:03.942Z,11.20
2023-01-01T08:18:30.811Z,11.16
2023-01-01T08:20:57.978Z,11.12
2023-01-01T08:23:28.133Z,11.07
2023-01-01T08:25:59.626Z,11.05
2023-01-01T08:28:31.684Z,11.02
2023-01-01T08:30:59.501Z,11.01
2023-01-01T08:33:27.767Z,10.99
2023-01-01T08:36:00.112Z,10.99
2023-01-01T08:38:30.316Z,10.98
2023-01-01T08:41:00.592Z,11.00
2023-01-01T08:43:27.102Z,11.01
2023-01-01T08:45:53.666Z,11.03
2023-01-01T08:48:23.209Z,11.04
2023-01-01T08:51:05.357Z,11.04
2023-01-01T08:53:57.103Z,11.05
2023-01-01T08:56:32.512Z,11.05
2023-01-01T08:59:08.552Z,11.06
2023-01-01T09:01:42.589Z,11.06
2023-01-01T09:04:15.680Z,11.08
2023-01-01T09:06:44.279Z,11.10
2023-01-01T09:09:10.694Z,11.09
2023-01-01T09:11:37.208Z,11.10
2023-01-01T09:14:05.683Z,11.12
2023-01-01T09:16:32.431Z,11.15
2023-01-01T09:19:00.008Z,11.17
2023-01-01T09:21:29.367Z,11.18
2023-01-01T09:23:56.028Z,11.19
2023-01-01T09:26:22.530Z,11.18
2023-01-01T09:28:49.126Z,11.18
2023-01-01T09:31:16.111Z,11.21
2023-01-01T09:33:42.687Z,11.22
2023-01-01T09:36:13.701Z,11.24
2023-01-01T09:38:40.464Z,11.28
2023-01-01T09:41:14.461Z,11.35
2023-01-01T09:44:19.442Z,11.42
2023-01-01T09:46:45.937Z,11.47
2023-01-01T09:49:31.249Z,11.55
2023-01-01T09:52:01.519Z,11.61
2023-01-01T09:54:34.047Z,11.68
2023-01-01T09:57:04.124Z,11.73
2023-01-01T09:59:30.738Z,11.79
2023-01-01T10:02:32.653Z,11.89
2023-01-01T10:05:36.289Z,12.01
2023-01-01T10:08:27.560Z,12.11
2023-01-01T10:11:15.564Z,12.15
2023-01-01T10:13:44.064Z,12.14
2023-01-01T10:16:25.466Z,12.17
2023-01-01T10:18:55.979Z,12.15
2023-01-01T10:21:46.642Z,12.15
2023-01-01T10:24:17.159Z,12.15
2023-01-01T10:26:44.050Z,12.16
2023-01-01T10:29:28.254Z,12.16
2023-01-01T10:31:56.948Z,12.19
2023-01-01T10:34:26.564Z,12.17
2023-01-01T10:36:54.873Z,12.16
2023-01-01T10:39:21.655Z,12.14
2023-01-01T10:41:48.687Z,12.16
2023-01-01T10:44:18.492Z,12.17
2023-01-01T10:46:50.557Z,12.19
2023-01-01T10:49:17.020Z,12.21
2023-01-01T10:51:47.021Z,12.23
2023-01-01T10:54:36.637Z,12.25
2023-01-01T10:57:40.624Z,12.20
2023-01-01T11:00:25.515Z,12.20
2023-01-01T11:03:13.823Z,12.21
2023-01-01T11:05:40.833Z,12.20
2023-01-01T11:08:19.989Z,12.21
2023-01-01T11:10:51.841Z,12.24
2023-01-01T11:13:20.842Z,12.28
2023-01-01T11:15:47.883Z,12.29
2023-01-01T11:18:40.729Z,12.31
2023-01-01T11:21:07.900Z,12.32
2023-01-01T11:23:37.295Z,12.32
2023-01-01T11:26:13.079Z,12.31
2023-01-01T11:28:41.485Z,12.33
2023-01-01T11:31:17.912Z,12.30
2023-01-01T11:33:55.027Z,12.26
2023-01-01T11:36:33.565Z,12.22
2023-01-01T11:39:08.577Z,12.19
2023-01-01T11:41:43.903Z,12.16
2023-01-01T11:44:14.325Z,12.13
2023-01-01T11:46:40.905Z,12.17
2023-01-01T11:49:22.755Z,12.19
2023-01-01T11:51:49.673Z,12.22
2023-01-01T11:54:29.241Z,12.21
2023-01-01T11:57:06.015Z,12.22
2023-01-01T11:59:59.539Z,12.22
2023-01-01T12:02:47.192Z,12.22
2023-01-01T12:05:27.058Z,12.22
2023-01-01T12:07:57.429Z,12.26
2023-01-01T12:10:24.159Z,12.28
2023-01-01T12:13:05.941Z,12.31
2023-01-01T12:15:38.794Z,12.37
2023-01-01T12:18:15.182Z,12.43
2023-01-01T12:20:53.839Z,12.51
2023-01-01T12:23:20.497Z,12.57
2023-01-01T12:25:57.167Z,12.64
2023-01-01T12:29:04.590Z,12.68
2023-01-01T12:31:58.129Z,12.66
2023-01-01T12:34:33.929Z,12.67
2023-01-01T12:37:15.544Z,12.64
2023-01-01T12:40:00.277Z,12.63
2023-01-01T12:42:45.368Z,12.62
2023-01-01T12:45:14.807Z,12.64
2023-01-01T12:48:02.742Z,12.65
2023-01-01T12:50:38.510Z,12.65
2023-01-01T12:53:23.661Z,12.65
2023-01-01T12:56:01.916Z,12.67
2023-01-01T12:59:00.498Z,12.66
2023-01-01T13:01:33.430Z,12.68
2023-01-01T13:04:07.243Z,12.64
2023-01-01T13:06:45.831Z,12.62
2023-01-01T13:09:26.299Z,12.60
2023-01-01T13:11:54.959Z,12.62
2023-01-01T13:14:21.504Z,12.61
2023-01-01T13:16:56.854Z,12.64
2023-01-01T13:19:31.517Z,12.63
2023-01-01T13:21:58.350Z,12.61
2023-01-01T13:24:26.750Z,12.61
2023-01-01T13:26:53.829Z,12.60
2023-01-01T13:29:20.314Z,12.61
2023-01-01T13:31:46.780Z,12.60
2023-01-01T13:35:00.553Z,12.58
2023-01-01T13:37:28.606Z,12.53
2023-01-01T13:39:57.937Z,12.52
2023-01-01T13:42:52.501Z,12.51
2023-01-01T13:46:10.525Z,12.51
2023-01-01T13:48:24.017Z,12.48
2023-01-01T13:50:53.406Z,12.43
2023-01-01T13:53:59.780Z,12.40
2023-01-01T13:56:52.572Z,12.40
2023-01-01T14:00:03.251Z,12.38
2023-01-01T14:03:07.960Z,12.37
2023-01-01T14:05:42.992Z,12.33
2023-01-01T14:08:41.674Z,12.30
2023-01-01T14:11:24.093Z,12.28
2023-01-01T14:13:50.897Z,12.26
2023-01-01T14:16:18.013Z,12.23
2023-01-01T14:18:49.865Z,12.20
2023-01-01T14:21:20.048Z,12.18
2023-01-01T14:23:52.800Z,12.16
2023-01-01T14:26:22.408Z,12.15
2023-01-01T14:28:49.130Z,12.14
2023-01-01T14:31:18.899Z,12.12
2023-01-01T14:33:47.363Z,12.09
2023-01-01T14:36:20.032Z,12.10
2023-01-01T14:38:49.031Z,12.08
2023-01-01T14:41:20.728Z,12.06
2023-01-01T14:43:49.624Z,12.04
2023-01-01T14:46:22.154Z,12.01
2023-01-01T14:48:53.077Z,12.02
2023-01-01T14:51:23.007Z,12.01
2023-01-01T14:53:52.277Z,11.98
2023-01-01T14:56:31.848Z,11.94
2023-01-01T14:59:18.112Z,11.91
2023-01-01T15:01:44.702Z,11.87
2023-01-01T15:04:24.281Z,11.84
2023-01-01T15:06:59.639Z,11.82
2023-01-01T15:09:31.069Z,11.78
2023-01-01T15:11:58.855Z,11.74
2023-01-01T15:14:39.027Z,11.69
2023-01-01T15:17:10.783Z,11.66
2023-01-01T15:19:41.260Z,11.61
2023-01-01T15:22:17.262Z,11.56
2023-01-01T15:24:45.884Z,11.52
2023-01-01T15:27:36.919Z,11.49
2023-01-01T15:30:13.282Z,11.45
2023-01-01T15:32:40.575Z,11.41
2023-01-01T15:35:19.142Z,11.37
2023-01-01T15:37:49.898Z,11.34
2023-01-01T15:40:16.423Z,11.32
2023-01-01T15:42:48.832Z,11.31
2023-01-01T15:45:21.891Z,11.30
2023-01-01T15:47:57.448Z,11.29
2023-01-01T15:50:30.421Z,11.28
2023-01-01T15:53:03.000Z,11.27
2023-01-01T15:55:34.980Z,11.26
2023-01-01T15:58:04.429Z,11.27
2023-01-01T16:00:35.225Z,11.25
2023-01-01T16:03:18.956Z,11.26
2023-01-01T16:05:51.901Z,11.26
2023-01-01T16:08:20.392Z,11.23
2023-01-01T16:10:51.187Z,11.24
2023-01-01T16:13:18.545Z,11.24
2023-01-01T16:15:56.768Z,11.25
2023-01-01T16:18:30.449Z,11.26
2023-01-01T16:20:57.084Z,11.26
2023-01-01T16:23:23.902Z,11.26
2023-01-01T16:25:50.533Z,11.26
2023-01-01T16:28:17.083Z,11.27
2023-01-01T16:30:44.259Z,11.27
2023-01-01T16:33:15.496Z,11.27
2023-01-01T16:35:41.994Z,11.27
2023-01-01T16:38:08.679Z,11.25
2023-01-01T16:40:38.082Z,11.25
2023-01-01T16:43:09.433Z,11.24
2023-01-01T16:45:36.115Z,11.25
2023-01-01T16:48:02.850Z,11.23
2023-01-01T16:50:29.356Z,11.24
2023-01-01T16:52:55.934Z,11.22
2023-01-01T16:55:22.437Z,11.22
2023-01-01T16:57:49.077Z,11.23
2023-01-01T17:00:16.023Z,11.25
2023-01-01T17:02:43.065Z,11.26
2023-01-01T17:05:10.714Z,11.27
2023-01-01T17:07:37.201Z,11.28
2023-01-01T17:10:04.689Z,11.30
2023-01-01T17:12:31.807Z,11.28
2023-01-01T17:14:58.770Z,11.28
2023-01-01T17:17:25.350Z,11.28
2023-01-01T17:19:51.885Z,11.28
2023-01-01T17:22:20.690Z,11.28
2023-01-01T17:24:47.173Z,11.28
2023-01-01T17:27:13.742Z,11.27
2023-01-01T17:29:42.465Z,11.26
2023-01-01T17:32:08.909Z,11.24
2023-01-01T17:34:35.546Z,11.23
2023-01-01T17:37:02.069Z,11.23
2023-01-01T17:39:28.661Z,11.22
2023-01-01T17:41:57.089Z,11.22
2023-01-01T17:44:23.980Z,11.22
2023-01-01T17:46:53.721Z,11.20
2023-01-01T17:49:21.585Z,11.17
2023-01-01T17:51:48.795Z,11.15
2023-01-01T17:54:15.898Z,11.13
2023-01-01T17:56:44.220Z,11.09
2023-01-01T17:59:11.831Z,11.07
2023-01-01T18:01:39.481Z,11.04
2023-01-01T18:04:12.520Z,11.02
2023-01-01T18:06:43.144Z,10.98
2023-01-01T18:09:16.852Z,10.94
2023-01-01T18:11:46.676Z,10.93
2023-01-01T18:14:21.068Z,10.89
2023-01-01T18:16:54.707Z,10.86
2023-01-01T18:19:22.729Z,10.83
2023-01-01T18:21:50.173Z,10.81
2023-01-01T18:24:17.987Z,10.78
2023-01-01T18:26:46.081Z,10.76
2023-01-01T18:29:14.922Z,10.75
2023-01-01T18:31:43.001Z,10.71
2023-01-01T18:34:12.048Z,10.71
2023-01-01T18:36:39.703Z,10.70
2023-01-01T18:39:16.376Z,10.68
2023-01-01T18:41:49.419Z,10.66
2023-01-01T18:44:19.515Z,10.64
2023-01-01T18:46:54.241Z,10.63
2023-01-01T18:49:23.845Z,10.62
2023-01-01T18:51:56.737Z,10.61
2023-01-01T18:54:25.007Z,10.61
2023-01-01T18:57:01.156Z,10.60
2023-01-01T18:59:28.173Z,10.57
2023-01-01T19:01:55.604Z,10.58
2023-01-01T19:04:22.885Z,10.60
2023-01-01T19:06:49.691Z,10.61
2023-01-01T19:09:23.313Z,10.60
2023-01-01T19:11:52.107Z,10.60
2023-01-01T19:14:24.172Z,10.56
2023-01-01T19:16:55.311Z,10.55
2023-01-01T19:19:28.253Z,10.54
2023-01-01T19:22:06.497Z,10.53
2023-01-01T19:24:36.148Z,10.53
2023-01-01T19:27:13.423Z,10.54
2023-01-01T19:29:46.204Z,10.54
2023-01-01T19:32:12.871Z,10.54
2023-01-01T19:34:39.921Z,10.53
2023-01-01T19:37:07.647Z,10.52
2023-01-01T19:39:37.875Z,10.52
2023-01-01T19:42:06.880Z,10.54
2023-01-01T19:44:34.938Z,10.53
2023-01-01T19:47:01.739Z,10.54
2023-01-01T19:49:28.466Z,10.53
2023-01-01T19:51:55.028Z,10.54
2023-01-01T19:54:21.605Z,10.54
2023-01-01T19:56:49.669Z,10.54
2023-01-01T19:59:16.252Z,10.54
2023-01-01T20:01:42.955Z,10.53
2023-01-01T20:04:09.646Z,10.53
2023-01-01T20:06:36.445Z,10.52
2023-01-01T20:09:03.594Z,10.53
2023-01-01T20:11:32.206Z,10.53
2023-01-01T20:13:59.033Z,10.52
2023-01-01T20:16:25.627Z,10.53
2023-01-01T20:18:52.325Z,10.52
2023-01-01T20:21:37.624Z,10.52
2023-01-01T20:24:04.486Z,10.52
2023-01-01T20:26:31.104Z,10.50
2023-01-01T20:29:16.161Z,10.50
2023-01-01T20:31:43.312Z,10.49
2023-01-01T20:34:10.221Z,10.47
2023-01-01T20:36:55.549Z,10.49
2023-01-01T20:39:22.734Z,10.49
2023-01-01T20:41:49.900Z,10.50
2023-01-01T20:44:16.841Z,10.50
2023-01-01T20:46:45.495Z,10.50
2023-01-01T20:49:12.025Z,10.49
2023-01-01T20:51:38.680Z,10.47
2023-01-01T20:54:05.255Z,10.48
2023-01-01T20:56:31.866Z,10.47
2023-01-01T20:59:04.470Z,10.48
2023-01-01T21:01:39.668Z,10.46
2023-01-01T21:04:06.207Z,10.46
2023-01-01T21:06:32.845Z,10.47
2023-01-01T21:08:59.467Z,10.47
2023-01-01T21:11:26.373Z,10.47
2023-01-01T21:13:52.931Z,10.46
2023-01-01T21:16:41.250Z,10.47
2023-01-01T21:19:09.123Z,10.46
2023-01-01T21:21:42.533Z,10.45
2023-01-01T21:24:16.995Z,10.45
2023-01-01T21:26:43.322Z,10.44
2023-01-01T21:29:19.778Z,10.45
2023-01-01T21:31:50.915Z,10.45
2023-01-01T21:34:34.931Z,10.46
2023-01-01T21:37:41.077Z,10.47
2023-01-01T21:40:25.436Z,10.46
2023-01-01T21:43:33.925Z,10.46
2023-01-01T21:46:06.410Z,10.44
2023-01-01T21:48:40.760Z,10.45
2023-01-01T21:51:36.086Z,10.44
2023-01-01T21:54:37.741Z,10.44
2023-01-01T21:57:22.575Z,10.42
2023-01-01T21:59:50.802Z,10.42
2023-01-01T22:02:31.871Z,10.42
2023-01-01T22:05:01.841Z,10.42
2023-01-01T22:07:57.400Z,10.41
2023-01-01T22:10:23.991Z,10.41
2023-01-01T22:12:57.036Z,10.41
2023-01-01T22:15:44.165Z,10.41
2023-01-01T22:18:11.741Z,10.39
2023-01-01T22:20:40.304Z,10.39
2023-01-01T22:23:19.094Z,10.41
2023-01-01T22:25:47.344Z,10.42
2023-01-01T22:28:30.421Z,10.41
2023-01-01T22:31:02.136Z,10.40
2023-01-01T22:33:31.555Z,10.40
2023-01-01T22:35:58.167Z,10.38
2023-01-01T22:38:32.644Z,10.37
2023-01-01T22:40:59.493Z,10.40
2023-01-01T22:43:30.497Z,10.40
2023-01-01T22:45:58.439Z,10.40
2023-01-01T22:48:37.612Z,10.42
2023-01-01T22:51:18.516Z,10.44
2023-01-01T22:53:45.344Z,10.48
2023-01-01T22:56:12.087Z,10.50
2023-01-01T22:58:38.938Z,10.51
2023-01-01T23:01:05.723Z,10.52
2023-01-01T23:03:32.457Z,10.53
2023-01-01T23:05:59.787Z,10.53
2023-01-01T23:08:26.603Z,10.55
2023-01-01T23:10:53.688Z,10.57
2023-01-01T23:13:38.748Z,10.56
2023-01-01T23:16:05.319Z,10.56
2023-01-01T23:18:33.979Z,10.55
2023-01-01T23:21:03.623Z,10.54
2023-01-01T23:23:31.646Z,10.54
2023-01-01T23:25:59.576Z,10.53
2023-01-01T23:28:28.675Z,10.53
2023-01-01T23:30:56.623Z,10.53
2023-01-01T23:33:23.218Z,10.53
2023-01-01T23:35:49.927Z,10.53
2023-01-01T23:38:16.752Z,10.54
2023-01-01T23:40:43.204Z,10.53
2023-01-01T23:43:09.692Z,10.54
2023-01-01T23:45:37.251Z,10.54
2023-01-01T23:48:04.460Z,10.56
2023-01-01T23:50:31.750Z,10.57
2023-01-01T23:52:58.384Z,10.58
2023-01-01T23:55:24.934Z,10.58
2023-01-01T23:57:52.298Z,10.60
